Weather History for Bentonville, AR

Change the Weather History Date:

Wednesday, January 15, 2014

  Actual Average Record
Temperature  
Mean Temperature 32 °F -  
Max Temperature 39 °F 43 °F 69 °F (1952)
Min Temperature 24 °F 21 °F -6 °F (1979)
Degree Days  
Heating Degree Days 34    
Moisture  
Dew Point 14 °F    
Average Humidity 48    
Maximum Humidity 59    
Minimum Humidity 38    
Precipitation  
Precipitation 0.00 in - - ()
Sea Level Pressure  
Sea Level Pressure 30.15 in    
Wind  
Wind Speed 7 mph (WNW)    
Max Wind Speed 15 mph    
Max Gust Speed 20 mph    
Visibility 10 miles    
Events      
Averages and records for this station are not official NWS values.
T = Trace of Precipitation, MM = Missing Value Source: NWS Daily Summary

Daily Weather History Graph

Daily Weather History Graph

Search for Another Location

Airport:

Trip Planner

Search our weather history database for the weather conditions in past years. The results will help you decide how hot, cold, wet, or windy it might be!

Date:

Astronomy

Jan. 15, 2014 Rise Set
Actual Time 7:27 AM CST 5:25 PM CST
Civil Twilight 6:59 AM CST 5:53 PM CST
Nautical Twilight 6:27 AM CST 6:25 PM CST
Astronomical Twilight 5:56 AM CST 6:56 PM CST
Moon 5:22 PM CST (1/15) 6:45 AM CST (1/15)
Length of Visible Light 10h 53m
Length of Day
9h 57m
Full, 100% of the Moon is Illuminated
Jan 15
Full
Jan 15
Full
Jan 23
Last Quarter
Jan 30
New
Feb 6
First Quarter

Hourly Weather History & Observations

Time (CST) Temp. Windchill Dew Point Humidity Pressure Visibility Wind Dir Wind Speed Gust Speed Precip Events Conditions
12:15 AM 30.2 °F 25.4 °F 12.2 °F 47% 30.19 in 10.0 mi WNW 4.6 mph - N/A   Clear
12:35 AM 28.4 °F 23.3 °F 12.2 °F 51% 30.19 in 10.0 mi WNW 4.6 mph - N/A   Clear
12:55 AM 28.4 °F 23.3 °F 12.2 °F 51% 30.19 in 10.0 mi WNW 4.6 mph - N/A   Clear
1:15 AM 28.4 °F 22.2 °F 12.2 °F 51% 30.19 in 10.0 mi WNW 5.8 mph - N/A   Clear
1:35 AM 28.4 °F 21.2 °F 12.2 °F 51% 30.19 in 10.0 mi WNW 6.9 mph - N/A   Clear
1:55 AM 28.4 °F 21.2 °F 12.2 °F 51% 30.20 in 10.0 mi West 6.9 mph - N/A   Clear
2:15 AM 28.4 °F 21.2 °F 12.2 °F 51% 30.20 in 10.0 mi WNW 6.9 mph - N/A   Clear
2:35 AM 28.4 °F 21.2 °F 14.0 °F 55% 30.20 in 10.0 mi WNW 6.9 mph - N/A   Scattered Clouds
2:55 AM 30.2 °F 23.4 °F 12.2 °F 47% 30.20 in 10.0 mi NW 6.9 mph - N/A   Scattered Clouds
3:15 AM 30.2 °F 23.4 °F 12.2 °F 47% 30.21 in 10.0 mi NW 6.9 mph - N/A   Clear
3:35 AM 28.4 °F 21.2 °F 12.2 °F 51% 30.21 in 10.0 mi NNW 6.9 mph - N/A   Clear
3:55 AM 28.4 °F 20.4 °F 12.2 °F 51% 30.21 in 10.0 mi NW 8.1 mph - N/A   Clear
4:15 AM 28.4 °F 21.2 °F 12.2 °F 51% 30.21 in 10.0 mi NNW 6.9 mph - N/A   Clear
4:35 AM 26.6 °F 21.2 °F 10.4 °F 51% 30.21 in 10.0 mi NNW 4.6 mph - N/A   Clear
4:55 AM 24.8 °F - 12.2 °F 59% 30.20 in 10.0 mi Calm Calm - N/A   Clear
5:15 AM 24.8 °F 19.1 °F 10.4 °F 54% 30.20 in 10.0 mi WNW 4.6 mph - N/A   Clear
5:35 AM 24.8 °F 19.1 °F 10.4 °F 54% 30.21 in 10.0 mi WNW 4.6 mph - N/A   Clear
5:55 AM 24.8 °F 19.1 °F 12.2 °F 59% 30.21 in 10.0 mi WNW 4.6 mph - N/A   Clear
6:15 AM 24.8 °F 19.1 °F 10.4 °F 54% 30.21 in 10.0 mi WNW 4.6 mph - N/A   Clear
6:35 AM 24.8 °F 19.1 °F 10.4 °F 54% 30.22 in 10.0 mi NW 4.6 mph - N/A   Clear
6:55 AM 24.8 °F 17.9 °F 10.4 °F 54% 30.22 in 10.0 mi NNW 5.8 mph - N/A   Clear
7:15 AM 24.8 °F 15.3 °F 10.4 °F 54% 30.22 in 10.0 mi NNW 9.2 mph - N/A   Clear
7:35 AM 24.8 °F 17.9 °F 10.4 °F 54% 30.22 in 10.0 mi NNW 5.8 mph - N/A   Clear
7:55 AM 24.8 °F 17.9 °F 10.4 °F 54% 30.23 in 10.0 mi NNW 5.8 mph - N/A   Clear
8:15 AM 26.6 °F 17.5 °F 8.6 °F 47% 30.23 in 10.0 mi NNW 9.2 mph - N/A   Clear
8:35 AM 26.6 °F 17.5 °F 10.4 °F 51% 30.24 in 10.0 mi NNW 9.2 mph - N/A   Clear
8:55 AM 26.6 °F 18.2 °F 8.6 °F 47% 30.25 in 10.0 mi NNW 8.1 mph - N/A   Clear
9:15 AM 28.4 °F 19.7 °F 10.4 °F 47% 30.25 in 10.0 mi NNW 9.2 mph - N/A   Clear
9:35 AM 28.4 °F 19.7 °F 10.4 °F 47% 30.25 in 10.0 mi NNW 9.2 mph - N/A   Clear
9:55 AM 28.4 °F 21.2 °F 8.6 °F 43% 30.25 in 10.0 mi NNW 6.9 mph - N/A   Clear
10:15 AM 30.2 °F 21.9 °F 10.4 °F 44% 30.26 in 10.0 mi North 9.2 mph - N/A   Clear
10:35 AM 30.2 °F 20.8 °F 10.4 °F 44% 30.26 in 10.0 mi NNW 11.5 mph - N/A   Clear
10:55 AM 30.2 °F 22.6 °F 10.4 °F 44% 30.26 in 10.0 mi North 8.1 mph - N/A   Clear
11:15 AM 32.0 °F 24.2 °F 10.4 °F 41% 30.25 in 10.0 mi NW 9.2 mph - N/A   Clear
11:35 AM 33.8 °F 24.8 °F 12.2 °F 41% 30.24 in 10.0 mi NW 12.7 mph 18.4 mph N/A   Clear
11:55 AM 33.8 °F 23.9 °F 14.0 °F 44% 30.23 in 10.0 mi NW 15.0 mph 19.6 mph N/A   Clear
12:15 PM 35.6 °F 27.5 °F 12.2 °F 38% 30.22 in 10.0 mi WNW 11.5 mph 17.3 mph N/A   Clear
12:35 PM 35.6 °F 27.1 °F 15.8 °F 44% 30.20 in 10.0 mi NW 12.7 mph - N/A   Mostly Cloudy
12:55 PM 35.6 °F 28.0 °F 14.0 °F 41% 30.18 in 10.0 mi WNW 10.4 mph 17.3 mph N/A   Scattered Clouds
1:15 PM 35.6 °F 29.9 °F 15.8 °F 44% 30.18 in 10.0 mi WNW 6.9 mph - N/A   Partly Cloudy
1:35 PM 37.4 °F 29.8 °F 15.8 °F 41% 30.17 in 10.0 mi WNW 11.5 mph 19.6 mph N/A   Clear
1:55 PM 37.4 °F 28.9 °F 15.8 °F 41% 30.16 in 10.0 mi WNW 13.8 mph 18.4 mph N/A   Clear
2:15 PM 37.4 °F 29.8 °F 15.8 °F 41% 30.15 in 10.0 mi NW 11.5 mph 18.4 mph N/A   Clear
2:35 PM 37.4 °F 32.1 °F 17.6 °F 45% 30.15 in 10.0 mi NW 6.9 mph - N/A   Clear
2:55 PM 37.4 °F 29.8 °F 15.8 °F 41% 30.14 in 10.0 mi NW 11.5 mph - N/A   Clear
3:15 PM 39.2 °F 33.6 °F 17.6 °F 42% 30.15 in 10.0 mi WNW 8.1 mph - N/A   Clear
3:35 PM 37.4 °F 31.4 °F 17.6 °F 45% 30.14 in 10.0 mi WNW 8.1 mph - N/A   Clear
3:55 PM 39.2 °F 33.6 °F 17.6 °F 42% 30.13 in 10.0 mi NW 8.1 mph - N/A   Clear
4:15 PM 37.4 °F 34.9 °F 17.6 °F 45% 30.13 in 10.0 mi WNW 3.5 mph - N/A   Clear
4:35 PM 37.4 °F 33.8 °F 17.6 °F 45% 30.12 in 10.0 mi West 4.6 mph - N/A   Scattered Clouds
4:55 PM 37.4 °F 34.9 °F 17.6 °F 45% 30.11 in 10.0 mi WSW 3.5 mph - N/A   Overcast
5:15 PM 37.4 °F 33.8 °F 15.8 °F 41% 30.10 in 10.0 mi South 4.6 mph - N/A   Mostly Cloudy
5:35 PM 35.6 °F 32.8 °F 15.8 °F 44% 30.09 in 10.0 mi SSE 3.5 mph - N/A   Clear
5:55 PM 33.8 °F 28.6 °F 17.6 °F 52% 30.08 in 10.0 mi South 5.8 mph - N/A   Clear
6:15 PM 33.8 °F 29.6 °F 17.6 °F 52% 30.07 in 10.0 mi SSE 4.6 mph - N/A   Scattered Clouds
6:35 PM 33.8 °F 28.6 °F 17.6 °F 52% 30.07 in 10.0 mi South 5.8 mph - N/A   Overcast
6:55 PM 33.8 °F 29.6 °F 17.6 °F 52% 30.06 in 10.0 mi South 4.6 mph - N/A   Overcast
7:15 PM 35.6 °F 31.7 °F 19.4 °F 52% 30.06 in 10.0 mi SSE 4.6 mph - N/A   Overcast
7:35 PM 35.6 °F 29.9 °F 17.6 °F 48% 30.06 in 10.0 mi South 6.9 mph - N/A   Mostly Cloudy
7:55 PM 35.6 °F 29.9 °F 17.6 °F 48% 30.05 in 10.0 mi South 6.9 mph - N/A   Mostly Cloudy
8:15 PM 35.6 °F 29.2 °F 17.6 °F 48% 30.05 in 10.0 mi South 8.1 mph - N/A   Mostly Cloudy
8:35 PM 35.6 °F 28.6 °F 17.6 °F 48% 30.03 in 10.0 mi South 9.2 mph - N/A   Overcast
8:55 PM 35.6 °F 28.6 °F 17.6 °F 48% 30.02 in 10.0 mi South 9.2 mph - N/A   Overcast
9:15 PM 35.6 °F 27.5 °F 17.6 °F 48% 30.01 in 10.0 mi South 11.5 mph - N/A   Scattered Clouds
9:35 PM 37.4 °F 29.8 °F 17.6 °F 45% 30.00 in 10.0 mi South 11.5 mph - N/A   Mostly Cloudy
9:55 PM 37.4 °F 30.8 °F 17.6 °F 45% 29.99 in 10.0 mi South 9.2 mph - N/A   Overcast
10:15 PM 37.4 °F 30.3 °F 17.6 °F 45% 29.98 in 10.0 mi South 10.4 mph - N/A   Overcast
10:35 PM 37.4 °F 29.8 °F 19.4 °F 48% 29.96 in 10.0 mi South 11.5 mph - N/A   Overcast
10:55 PM 37.4 °F 29.8 °F 19.4 °F 48% 29.95 in 10.0 mi SSW 11.5 mph - N/A   Overcast
11:15 PM 37.4 °F 29.8 °F 19.4 °F 48% 29.94 in 10.0 mi SSW 11.5 mph - N/A   Overcast
11:35 PM 39.2 °F 32.0 °F 19.4 °F 45% 29.94 in 10.0 mi SSW 11.5 mph - N/A   Overcast
11:55 PM 39.2 °F 33.6 °F 19.4 °F 45% 29.94 in 10.0 mi SSW 8.1 mph - N/A   Mostly Cloudy